sensor_id;sensor_type;location;lat;lon;timestamp;temperature;humidity
67502;SHT30;54349;52.528;19.760;2022-11-15T00:00:26;23.73;44.47
67502;SHT30;54349;52.528;19.760;2022-11-15T00:03:14;23.73;44.34
67502;SHT30;54349;52.528;19.760;2022-11-15T00:06:12;23.74;44.29
67502;SHT30;54349;52.528;19.760;2022-11-15T00:09:00;23.74;44.19
67502;SHT30;54349;52.528;19.760;2022-11-15T00:11:47;23.75;44.12
67502;SHT30;54349;52.528;19.760;2022-11-15T00:14:34;23.75;44.09
67502;SHT30;54349;52.528;19.760;2022-11-15T00:17:21;23.75;44.08
67502;SHT30;54349;52.528;19.760;2022-11-15T00:20:08;23.75;44.03
67502;SHT30;54349;52.528;19.760;2022-11-15T00:22:56;23.75;44.50
67502;SHT30;54349;52.528;19.760;2022-11-15T00:25:43;23.74;44.92
67502;SHT30;54349;52.528;19.760;2022-11-15T00:28:30;23.74;44.83
67502;SHT30;54349;52.528;19.760;2022-11-15T00:31:17;23.74;44.63
67502;SHT30;54349;52.528;19.760;2022-11-15T00:34:04;23.75;44.48
67502;SHT30;54349;52.528;19.760;2022-11-15T00:36:51;23.76;44.32
67502;SHT30;54349;52.528;19.760;2022-11-15T00:39:38;23.76;44.20
67502;SHT30;54349;52.528;19.760;2022-11-15T00:42:25;23.76;44.08
67502;SHT30;54349;52.528;19.760;2022-11-15T00:45:12;23.76;43.96
67502;SHT30;54349;52.528;19.760;2022-11-15T00:47:59;23.76;43.90
67502;SHT30;54349;52.528;19.760;2022-11-15T00:50:46;23.75;43.89
67502;SHT30;54349;52.528;19.760;2022-11-15T00:53:33;23.76;43.81
67502;SHT30;54349;52.528;19.760;2022-11-15T00:56:20;23.76;43.78
67502;SHT30;54349;52.528;19.760;2022-11-15T00:59:07;23.76;43.71
67502;SHT30;54349;52.528;19.760;2022-11-15T01:01:54;23.76;43.68
67502;SHT30;54349;52.528;19.760;2022-11-15T01:04:41;23.75;43.61
67502;SHT30;54349;52.528;19.760;2022-11-15T01:07:28;23.73;43.55
67502;SHT30;54349;52.528;19.760;2022-11-15T01:10:15;23.71;43.36
67502;SHT30;54349;52.528;19.760;2022-11-15T01:13:02;23.69;43.24
67502;SHT30;54349;52.528;19.760;2022-11-15T01:15:49;23.65;43.17
67502;SHT30;54349;52.528;19.760;2022-11-15T01:18:36;23.61;43.04
67502;SHT30;54349;52.528;19.760;2022-11-15T01:21:24;23.57;42.96
67502;SHT30;54349;52.528;19.760;2022-11-15T01:24:14;23.54;42.85
67502;SHT30;54349;52.528;19.760;2022-11-15T01:27:01;23.51;42.79
67502;SHT30;54349;52.528;19.760;2022-11-15T01:29:48;23.49;42.69
67502;SHT30;54349;52.528;19.760;2022-11-15T01:32:34;23.46;42.65
67502;SHT30;54349;52.528;19.760;2022-11-15T01:35:22;23.43;42.57
67502;SHT30;54349;52.528;19.760;2022-11-15T01:38:08;23.41;42.58
67502;SHT30;54349;52.528;19.760;2022-11-15T01:40:55;23.37;42.54
67502;SHT30;54349;52.528;19.760;2022-11-15T01:43:42;23.34;42.48
67502;SHT30;54349;52.528;19.760;2022-11-15T01:46:35;23.31;42.41
67502;SHT30;54349;52.528;19.760;2022-11-15T01:49:25;23.28;42.38
67502;SHT30;54349;52.528;19.760;2022-11-15T01:52:15;23.25;42.33
67502;SHT30;54349;52.528;19.760;2022-11-15T01:58:00;23.20;42.27
67502;SHT30;54349;52.528;19.760;2022-11-15T02:00:51;23.17;42.30
67502;SHT30;54349;52.528;19.760;2022-11-15T02:03:44;23.15;42.21
67502;SHT30;54349;52.528;19.760;2022-11-15T02:06:48;23.11;42.15
67502;SHT30;54349;52.528;19.760;2022-11-15T02:09:36;23.10;42.11
67502;SHT30;54349;52.528;19.760;2022-11-15T02:12:25;23.08;42.10
67502;SHT30;54349;52.528;19.760;2022-11-15T02:15:12;23.05;42.00
67502;SHT30;54349;52.528;19.760;2022-11-15T02:18:07;23.02;42.01
67502;SHT30;54349;52.528;19.760;2022-11-15T02:37:59;22.84;41.86
67502;SHT30;54349;52.528;19.760;2022-11-15T02:44:02;22.80;41.95
67502;SHT30;54349;52.528;19.760;2022-11-15T02:47:00;22.77;41.91
67502;SHT30;54349;52.528;19.760;2022-11-15T02:50:08;22.76;41.96
67502;SHT30;54349;52.528;19.760;2022-11-15T02:53:00;22.72;41.89
67502;SHT30;54349;52.528;19.760;2022-11-15T02:55:49;22.71;41.84
67502;SHT30;54349;52.528;19.760;2022-11-15T03:08:34;22.62;41.92
67502;SHT30;54349;52.528;19.760;2022-11-15T03:11:44;22.60;41.86
67502;SHT30;54349;52.528;19.760;2022-11-15T03:14:56;22.58;41.86
67502;SHT30;54349;52.528;19.760;2022-11-15T03:17:54;22.56;41.85
67502;SHT30;54349;52.528;19.760;2022-11-15T03:20:48;22.54;41.89
67502;SHT30;54349;52.528;19.760;2022-11-15T03:23:38;22.52;41.86
67502;SHT30;54349;52.528;19.760;2022-11-15T03:26:26;22.50;41.88
67502;SHT30;54349;52.528;19.760;2022-11-15T03:29:20;22.49;41.81
67502;SHT30;54349;52.528;19.760;2022-11-15T03:32:15;22.46;41.84
67502;SHT30;54349;52.528;19.760;2022-11-15T03:35:14;22.45;41.87
67502;SHT30;54349;52.528;19.760;2022-11-15T03:38:24;22.43;41.89
67502;SHT30;54349;52.528;19.760;2022-11-15T03:41:30;22.41;41.81
67502;SHT30;54349;52.528;19.760;2022-11-15T03:47:53;22.37;41.79
67502;SHT30;54349;52.528;19.760;2022-11-15T03:50:59;22.36;41.82
67502;SHT30;54349;52.528;19.760;2022-11-15T03:53:46;22.33;41.73
67502;SHT30;54349;52.528;19.760;2022-11-15T03:56:34;22.31;41.80
67502;SHT30;54349;52.528;19.760;2022-11-15T03:59:20;22.31;41.90
67502;SHT30;54349;52.528;19.760;2022-11-15T04:02:07;22.28;41.91
67502;SHT30;54349;52.528;19.760;2022-11-15T04:04:54;22.27;41.92
67502;SHT30;54349;52.528;19.760;2022-11-15T04:07:41;22.25;41.56
67502;SHT30;54349;52.528;19.760;2022-11-15T04:10:29;22.28;41.09
67502;SHT30;54349;52.528;19.760;2022-11-15T04:13:15;22.32;40.92
67502;SHT30;54349;52.528;19.760;2022-11-15T04:16:02;22.36;40.83
67502;SHT30;54349;52.528;19.760;2022-11-15T04:18:49;22.37;40.93
67502;SHT30;54349;52.528;19.760;2022-11-15T04:21:56;22.38;40.98
67502;SHT30;54349;52.528;19.760;2022-11-15T04:25:02;22.38;40.97
67502;SHT30;54349;52.528;19.760;2022-11-15T04:27:49;22.39;40.84
67502;SHT30;54349;52.528;19.760;2022-11-15T04:30:36;22.44;40.57
67502;SHT30;54349;52.528;19.760;2022-11-15T04:33:23;22.48;40.50
67502;SHT30;54349;52.528;19.760;2022-11-15T04:36:10;22.54;40.48
67502;SHT30;54349;52.528;19.760;2022-11-15T04:39:17;22.60;40.36
67502;SHT30;54349;52.528;19.760;2022-11-15T04:42:03;22.66;40.33
67502;SHT30;54349;52.528;19.760;2022-11-15T04:44:50;22.69;40.26
67502;SHT30;54349;52.528;19.760;2022-11-15T04:47:37;22.72;40.25
67502;SHT30;54349;52.528;19.760;2022-11-15T04:50:24;22.74;40.28
67502;SHT30;54349;52.528;19.760;2022-11-15T04:53:11;22.73;40.28
67502;SHT30;54349;52.528;19.760;2022-11-15T04:55:58;22.78;40.00
67502;SHT30;54349;52.528;19.760;2022-11-15T04:58:45;22.86;39.83
67502;SHT30;54349;52.528;19.760;2022-11-15T05:01:31;22.92;39.65
67502;SHT30;54349;52.528;19.760;2022-11-15T05:04:18;22.97;39.60
67502;SHT30;54349;52.528;19.760;2022-11-15T05:07:05;23.00;39.57
67502;SHT30;54349;52.528;19.760;2022-11-15T05:09:52;23.03;39.57
67502;SHT30;54349;52.528;19.760;2022-11-15T05:12:39;23.04;39.59
67502;SHT30;54349;52.528;19.760;2022-11-15T05:15:26;23.04;39.60
67502;SHT30;54349;52.528;19.760;2022-11-15T05:18:13;23.04;39.58
67502;SHT30;54349;52.528;19.760;2022-11-15T05:21:06;23.03;39.52
67502;SHT30;54349;52.528;19.760;2022-11-15T05:23:56;23.04;39.32
67502;SHT30;54349;52.528;19.760;2022-11-15T05:26:43;23.08;39.29
67502;SHT30;54349;52.528;19.760;2022-11-15T05:29:30;23.13;39.22
67502;SHT30;54349;52.528;19.760;2022-11-15T05:32:17;23.17;39.37
67502;SHT30;54349;52.528;19.760;2022-11-15T05:35:05;23.20;39.60
67502;SHT30;54349;52.528;19.760;2022-11-15T05:37:58;23.24;39.85
67502;SHT30;54349;52.528;19.760;2022-11-15T05:40:45;23.27;40.05
67502;SHT30;54349;52.528;19.760;2022-11-15T05:43:32;23.28;40.20
67502;SHT30;54349;52.528;19.760;2022-11-15T05:46:24;23.29;40.42
67502;SHT30;54349;52.528;19.760;2022-11-15T05:49:12;23.29;40.58
67502;SHT30;54349;52.528;19.760;2022-11-15T05:52:06;23.31;40.54
67502;SHT30;54349;52.528;19.760;2022-11-15T05:54:57;23.35;40.41
67502;SHT30;54349;52.528;19.760;2022-11-15T05:57:45;23.38;40.27
67502;SHT30;54349;52.528;19.760;2022-11-15T06:00:32;23.38;40.15
67502;SHT30;54349;52.528;19.760;2022-11-15T06:03:20;23.36;40.23
67502;SHT30;54349;52.528;19.760;2022-11-15T06:06:07;23.33;40.88
67502;SHT30;54349;52.528;19.760;2022-11-15T06:09:01;23.33;41.56
67502;SHT30;54349;52.528;19.760;2022-11-15T06:11:48;23.34;41.74
67502;SHT30;54349;52.528;19.760;2022-11-15T06:14:35;23.38;41.75
67502;SHT30;54349;52.528;19.760;2022-11-15T06:17:22;23.41;41.74
67502;SHT30;54349;52.528;19.760;2022-11-15T06:20:09;23.43;41.76
67502;SHT30;54349;52.528;19.760;2022-11-15T06:23:00;23.44;41.72
67502;SHT30;54349;52.528;19.760;2022-11-15T06:25:50;23.43;41.77
67502;SHT30;54349;52.528;19.760;2022-11-15T06:28:37;23.41;41.82
67502;SHT30;54349;52.528;19.760;2022-11-15T06:31:24;23.38;41.84
67502;SHT30;54349;52.528;19.760;2022-11-15T06:34:11;23.34;41.89
67502;SHT30;54349;52.528;19.760;2022-11-15T06:36:58;23.32;41.94
67502;SHT30;54349;52.528;19.760;2022-11-15T06:39:45;23.28;42.06
67502;SHT30;54349;52.528;19.760;2022-11-15T06:42:32;23.25;42.12
67502;SHT30;54349;52.528;19.760;2022-11-15T06:45:19;23.22;42.21
67502;SHT30;54349;52.528;19.760;2022-11-15T06:48:06;23.19;42.32
67502;SHT30;54349;52.528;19.760;2022-11-15T06:50:55;23.16;42.46
67502;SHT30;54349;52.528;19.760;2022-11-15T06:53:45;23.13;42.53
67502;SHT30;54349;52.528;19.760;2022-11-15T06:56:33;23.10;42.59
67502;SHT30;54349;52.528;19.760;2022-11-15T06:59:20;23.08;42.61
67502;SHT30;54349;52.528;19.760;2022-11-15T07:02:11;23.06;42.67
67502;SHT30;54349;52.528;19.760;2022-11-15T07:05:00;23.04;42.69
67502;SHT30;54349;52.528;19.760;2022-11-15T07:07:53;23.01;42.69
67502;SHT30;54349;52.528;19.760;2022-11-15T07:10:42;23.00;42.72
67502;SHT30;54349;52.528;19.760;2022-11-15T07:13:30;22.99;42.78
67502;SHT30;54349;52.528;19.760;2022-11-15T07:16:22;22.97;42.81
67502;SHT30;54349;52.528;19.760;2022-11-15T07:19:09;22.96;42.86
67502;SHT30;54349;52.528;19.760;2022-11-15T07:21:56;22.95;42.87
67502;SHT30;54349;52.528;19.760;2022-11-15T07:24:44;22.95;42.88
67502;SHT30;54349;52.528;19.760;2022-11-15T07:27:31;22.94;42.89
67502;SHT30;54349;52.528;19.760;2022-11-15T07:30:18;22.95;42.88
67502;SHT30;54349;52.528;19.760;2022-11-15T07:33:05;22.98;42.91
67502;SHT30;54349;52.528;19.760;2022-11-15T07:35:52;23.00;42.87
67502;SHT30;54349;52.528;19.760;2022-11-15T07:38:39;23.02;42.83
67502;SHT30;54349;52.528;19.760;2022-11-15T07:41:29;23.03;42.84
67502;SHT30;54349;52.528;19.760;2022-11-15T07:44:16;23.05;42.87
67502;SHT30;54349;52.528;19.760;2022-11-15T07:47:03;23.06;42.82
67502;SHT30;54349;52.528;19.760;2022-11-15T07:49:51;23.08;42.78
67502;SHT30;54349;52.528;19.760;2022-11-15T07:52:38;23.09;42.78
67502;SHT30;54349;52.528;19.760;2022-11-15T07:55:26;23.11;42.76
67502;SHT30;54349;52.528;19.760;2022-11-15T07:58:15;23.13;42.75
67502;SHT30;54349;52.528;19.760;2022-11-15T08:01:03;23.14;42.74
67502;SHT30;54349;52.528;19.760;2022-11-15T08:03:55;23.16;42.72
67502;SHT30;54349;52.528;19.760;2022-11-15T08:06:42;23.18;42.70
67502;SHT30;54349;52.528;19.760;2022-11-15T08:09:28;23.19;42.69
67502;SHT30;54349;52.528;19.760;2022-11-15T08:12:16;23.20;42.66
67502;SHT30;54349;52.528;19.760;2022-11-15T08:15:03;23.21;42.66
67502;SHT30;54349;52.528;19.760;2022-11-15T08:17:57;23.21;42.63
67502;SHT30;54349;52.528;19.760;2022-11-15T08:20:46;23.22;42.62
67502;SHT30;54349;52.528;19.760;2022-11-15T08:23:33;23.24;42.60
67502;SHT30;54349;52.528;19.760;2022-11-15T08:26:20;23.25;42.60
67502;SHT30;54349;52.528;19.760;2022-11-15T08:29:08;23.26;42.60
67502;SHT30;54349;52.528;19.760;2022-11-15T08:31:55;23.27;42.63
67502;SHT30;54349;52.528;19.760;2022-11-15T08:34:42;23.26;42.61
67502;SHT30;54349;52.528;19.760;2022-11-15T08:37:29;23.27;42.60
67502;SHT30;54349;52.528;19.760;2022-11-15T08:40:16;23.27;42.59
67502;SHT30;54349;52.528;19.760;2022-11-15T08:43:04;23.27;42.60
67502;SHT30;54349;52.528;19.760;2022-11-15T08:45:51;23.27;42.59
67502;SHT30;54349;52.528;19.760;2022-11-15T08:48:42;23.29;42.61
67502;SHT30;54349;52.528;19.760;2022-11-15T08:51:30;23.30;42.61
67502;SHT30;54349;52.528;19.760;2022-11-15T08:54:17;23.30;42.60
67502;SHT30;54349;52.528;19.760;2022-11-15T08:57:04;23.30;42.58
67502;SHT30;54349;52.528;19.760;2022-11-15T08:59:51;23.31;42.61
67502;SHT30;54349;52.528;19.760;2022-11-15T09:02:39;23.31;42.58
67502;SHT30;54349;52.528;19.760;2022-11-15T09:05:26;23.31;42.59
67502;SHT30;54349;52.528;19.760;2022-11-15T09:08:12;23.30;42.58
67502;SHT30;54349;52.528;19.760;2022-11-15T09:11:19;23.31;42.59
67502;SHT30;54349;52.528;19.760;2022-11-15T09:14:10;23.32;42.60
67502;SHT30;54349;52.528;19.760;2022-11-15T09:16:58;23.31;42.69
67502;SHT30;54349;52.528;19.760;2022-11-15T09:19:46;23.32;42.67
67502;SHT30;54349;52.528;19.760;2022-11-15T09:22:32;23.32;42.65
67502;SHT30;54349;52.528;19.760;2022-11-15T09:25:20;23.31;42.67
67502;SHT30;54349;52.528;19.760;2022-11-15T09:28:07;23.31;42.62
67502;SHT30;54349;52.528;19.760;2022-11-15T09:31:01;23.31;42.63
67502;SHT30;54349;52.528;19.760;2022-11-15T09:33:51;23.31;42.67
67502;SHT30;54349;52.528;19.760;2022-11-15T09:36:38;23.31;42.63
67502;SHT30;54349;52.528;19.760;2022-11-15T09:39:24;23.31;42.67
67502;SHT30;54349;52.528;19.760;2022-11-15T09:42:25;23.31;42.67
67502;SHT30;54349;52.528;19.760;2022-11-15T09:49:03;23.32;42.71
67502;SHT30;54349;52.528;19.760;2022-11-15T09:51:39;23.31;42.71
67502;SHT30;54349;52.528;19.760;2022-11-15T09:54:26;23.31;42.70
67502;SHT30;54349;52.528;19.760;2022-11-15T10:00:31;23.31;42.76
67502;SHT30;54349;52.528;19.760;2022-11-15T10:03:26;23.31;42.71
67502;SHT30;54349;52.528;19.760;2022-11-15T10:05:59;23.32;42.84
67502;SHT30;54349;52.528;19.760;2022-11-15T10:08:40;23.32;42.96
67502;SHT30;54349;52.528;19.760;2022-11-15T10:11:30;23.33;43.09
67502;SHT30;54349;52.528;19.760;2022-11-15T10:14:10;23.33;43.06
67502;SHT30;54349;52.528;19.760;2022-11-15T10:23:02;23.35;42.93
67502;SHT30;54349;52.528;19.760;2022-11-15T10:25:37;23.35;42.91
67502;SHT30;54349;52.528;19.760;2022-11-15T10:30:54;23.36;42.90
67502;SHT30;54349;52.528;19.760;2022-11-15T10:33:35;23.36;42.88
67502;SHT30;54349;52.528;19.760;2022-11-15T10:41:19;23.36;42.84
67502;SHT30;54349;52.528;19.760;2022-11-15T10:46:36;23.36;42.78
67502;SHT30;54349;52.528;19.760;2022-11-15T10:49:15;23.35;42.81
67502;SHT30;54349;52.528;19.760;2022-11-15T10:51:56;23.36;42.83
67502;SHT30;54349;52.528;19.760;2022-11-15T10:54:47;23.36;42.80
67502;SHT30;54349;52.528;19.760;2022-11-15T10:57:52;23.35;42.81
67502;SHT30;54349;52.528;19.760;2022-11-15T11:00:34;23.38;42.83
67502;SHT30;54349;52.528;19.760;2022-11-15T11:06:13;23.37;42.79
67502;SHT30;54349;52.528;19.760;2022-11-15T11:09:10;23.37;42.79
67502;SHT30;54349;52.528;19.760;2022-11-15T11:11:47;23.36;42.81
67502;SHT30;54349;52.528;19.760;2022-11-15T11:14:31;23.37;42.81
67502;SHT30;54349;52.528;19.760;2022-11-15T11:23:18;23.37;42.83
67502;SHT30;54349;52.528;19.760;2022-11-15T11:32:02;23.37;42.80
67502;SHT30;54349;52.528;19.760;2022-11-15T11:34:57;23.36;42.80
67502;SHT30;54349;52.528;19.760;2022-11-15T11:43:41;23.38;42.81
67502;SHT30;54349;52.528;19.760;2022-11-15T11:46:46;23.38;42.81
67502;SHT30;54349;52.528;19.760;2022-11-15T11:52:31;23.40;42.95
67502;SHT30;54349;52.528;19.760;2022-11-15T11:55:16;23.39;42.99
67502;SHT30;54349;52.528;19.760;2022-11-15T11:58:02;23.40;43.01
67502;SHT30;54349;52.528;19.760;2022-11-15T12:01:10;23.40;43.09
67502;SHT30;54349;52.528;19.760;2022-11-15T12:03:49;23.40;43.10
67502;SHT30;54349;52.528;19.760;2022-11-15T12:06:41;23.41;43.09
67502;SHT30;54349;52.528;19.760;2022-11-15T12:09:36;23.42;43.10
67502;SHT30;54349;52.528;19.760;2022-11-15T12:12:19;23.42;43.09
67502;SHT30;54349;52.528;19.760;2022-11-15T12:17:38;23.42;42.99
67502;SHT30;54349;52.528;19.760;2022-11-15T12:20:19;23.42;43.00
67502;SHT30;54349;52.528;19.760;2022-11-15T12:23:17;23.42;42.99
67502;SHT30;54349;52.528;19.760;2022-11-15T12:25:55;23.41;43.02
67502;SHT30;54349;52.528;19.760;2022-11-15T12:28:58;23.41;43.15
67502;SHT30;54349;52.528;19.760;2022-11-15T12:31:39;23.41;43.17
67502;SHT30;54349;52.528;19.760;2022-11-15T12:36:49;23.39;43.12
67502;SHT30;54349;52.528;19.760;2022-11-15T12:39:18;23.40;43.12
67502;SHT30;54349;52.528;19.760;2022-11-15T12:47:00;23.38;43.10
67502;SHT30;54349;52.528;19.760;2022-11-15T12:57:38;23.37;43.10
67502;SHT30;54349;52.528;19.760;2022-11-15T13:02:45;23.35;43.08
67502;SHT30;54349;52.528;19.760;2022-11-15T13:12:58;23.34;43.11
67502;SHT30;54349;52.528;19.760;2022-11-15T13:21:18;23.34;43.13
67502;SHT30;54349;52.528;19.760;2022-11-15T13:24:10;23.33;43.10
67502;SHT30;54349;52.528;19.760;2022-11-15T13:26:43;23.33;43.10
67502;SHT30;54349;52.528;19.760;2022-11-15T13:29:15;23.33;43.10
67502;SHT30;54349;52.528;19.760;2022-11-15T13:31:46;23.33;43.08
67502;SHT30;54349;52.528;19.760;2022-11-15T13:34:36;23.32;43.07
67502;SHT30;54349;52.528;19.760;2022-11-15T13:39:49;23.32;43.06
67502;SHT30;54349;52.528;19.760;2022-11-15T13:42:18;23.34;43.08
67502;SHT30;54349;52.528;19.760;2022-11-15T13:45:02;23.33;43.07
67502;SHT30;54349;52.528;19.760;2022-11-15T13:47:32;23.33;43.00
67502;SHT30;54349;52.528;19.760;2022-11-15T13:50:00;23.33;43.01
67502;SHT30;54349;52.528;19.760;2022-11-15T13:52:33;23.32;43.02
67502;SHT30;54349;52.528;19.760;2022-11-15T13:55:11;23.32;43.02
67502;SHT30;54349;52.528;19.760;2022-11-15T13:57:46;23.32;43.06
67502;SHT30;54349;52.528;19.760;2022-11-15T14:00:39;23.32;43.08
67502;SHT30;54349;52.528;19.760;2022-11-15T14:03:18;23.32;43.07
67502;SHT30;54349;52.528;19.760;2022-11-15T14:06:11;23.32;43.04
67502;SHT30;54349;52.528;19.760;2022-11-15T14:08:57;23.31;43.01
67502;SHT30;54349;52.528;19.760;2022-11-15T14:11:53;23.31;43.00
67502;SHT30;54349;52.528;19.760;2022-11-15T14:14:24;23.30;43.03
67502;SHT30;54349;52.528;19.760;2022-11-15T14:16:59;23.31;43.03
67502;SHT30;54349;52.528;19.760;2022-11-15T14:30:51;23.30;43.06
67502;SHT30;54349;52.528;19.760;2022-11-15T14:36:23;23.30;43.07
67502;SHT30;54349;52.528;19.760;2022-11-15T14:38:51;23.29;43.08
67502;SHT30;54349;52.528;19.760;2022-11-15T14:43:48;23.29;43.10
67502;SHT30;54349;52.528;19.760;2022-11-15T14:46:18;23.28;43.09
67502;SHT30;54349;52.528;19.760;2022-11-15T14:48:47;23.28;43.10
67502;SHT30;54349;52.528;19.760;2022-11-15T14:51:16;23.29;43.10
67502;SHT30;54349;52.528;19.760;2022-11-15T14:53:46;23.30;43.24
67502;SHT30;54349;52.528;19.760;2022-11-15T14:56:16;23.29;43.29
67502;SHT30;54349;52.528;19.760;2022-11-15T14:58:44;23.29;43.43
67502;SHT30;54349;52.528;19.760;2022-11-15T15:03:53;23.28;43.43
67502;SHT30;54349;52.528;19.760;2022-11-15T15:06:24;23.29;43.36
67502;SHT30;54349;52.528;19.760;2022-11-15T15:08:53;23.29;43.31
67502;SHT30;54349;52.528;19.760;2022-11-15T15:11:22;23.30;43.26
67502;SHT30;54349;52.528;19.760;2022-11-15T15:13:54;23.29;43.20
67502;SHT30;54349;52.528;19.760;2022-11-15T15:16:24;23.30;43.16
67502;SHT30;54349;52.528;19.760;2022-11-15T15:18:52;23.29;43.13
67502;SHT30;54349;52.528;19.760;2022-11-15T15:24:02;23.29;43.05
67502;SHT30;54349;52.528;19.760;2022-11-15T15:26:30;23.28;43.02
67502;SHT30;54349;52.528;19.760;2022-11-15T15:29:04;23.28;42.98
67502;SHT30;54349;52.528;19.760;2022-11-15T15:31:32;23.28;42.95
67502;SHT30;54349;52.528;19.760;2022-11-15T15:34:00;23.28;42.94
67502;SHT30;54349;52.528;19.760;2022-11-15T15:36:30;23.29;42.92
67502;SHT30;54349;52.528;19.760;2022-11-15T15:38:59;23.27;42.89
67502;SHT30;54349;52.528;19.760;2022-11-15T15:41:28;23.28;42.87
67502;SHT30;54349;52.528;19.760;2022-11-15T15:43:56;23.27;42.89
67502;SHT30;54349;52.528;19.760;2022-11-15T15:46:25;23.27;42.90
67502;SHT30;54349;52.528;19.760;2022-11-15T15:48:53;23.27;42.94
67502;SHT30;54349;52.528;19.760;2022-11-15T15:51:22;23.28;42.96
67502;SHT30;54349;52.528;19.760;2022-11-15T15:53:50;23.27;42.97
67502;SHT30;54349;52.528;19.760;2022-11-15T15:56:21;23.27;42.98
67502;SHT30;54349;52.528;19.760;2022-11-15T15:58:50;23.28;42.98
67502;SHT30;54349;52.528;19.760;2022-11-15T16:01:20;23.27;42.97
67502;SHT30;54349;52.528;19.760;2022-11-15T16:03:48;23.27;42.98
67502;SHT30;54349;52.528;19.760;2022-11-15T16:06:27;23.27;42.98
67502;SHT30;54349;52.528;19.760;2022-11-15T16:09:03;23.27;43.00
67502;SHT30;54349;52.528;19.760;2022-11-15T16:11:45;23.27;43.01
67502;SHT30;54349;52.528;19.760;2022-11-15T16:14:14;23.28;43.02
67502;SHT30;54349;52.528;19.760;2022-11-15T16:16:42;23.28;43.03
67502;SHT30;54349;52.528;19.760;2022-11-15T16:19:11;23.28;43.06
67502;SHT30;54349;52.528;19.760;2022-11-15T16:21:40;23.29;43.04
67502;SHT30;54349;52.528;19.760;2022-11-15T16:24:08;23.29;43.01
67502;SHT30;54349;52.528;19.760;2022-11-15T16:26:36;23.29;43.02
67502;SHT30;54349;52.528;19.760;2022-11-15T16:29:05;23.29;43.00
67502;SHT30;54349;52.528;19.760;2022-11-15T16:31:35;23.28;43.01
67502;SHT30;54349;52.528;19.760;2022-11-15T16:34:03;23.29;43.03
67502;SHT30;54349;52.528;19.760;2022-11-15T16:36:32;23.29;43.05
67502;SHT30;54349;52.528;19.760;2022-11-15T16:39:02;23.29;43.03
67502;SHT30;54349;52.528;19.760;2022-11-15T16:41:31;23.28;43.04
67502;SHT30;54349;52.528;19.760;2022-11-15T16:44:00;23.29;43.07
67502;SHT30;54349;52.528;19.760;2022-11-15T16:46:29;23.29;43.02
67502;SHT30;54349;52.528;19.760;2022-11-15T16:48:57;23.29;43.01
67502;SHT30;54349;52.528;19.760;2022-11-15T16:51:25;23.28;43.00
67502;SHT30;54349;52.528;19.760;2022-11-15T16:53:54;23.27;42.99
67502;SHT30;54349;52.528;19.760;2022-11-15T16:56:26;23.26;43.00
67502;SHT30;54349;52.528;19.760;2022-11-15T16:58:58;23.25;42.96
67502;SHT30;54349;52.528;19.760;2022-11-15T17:01:30;23.23;42.99
67502;SHT30;54349;52.528;19.760;2022-11-15T17:04:02;23.22;43.01
67502;SHT30;54349;52.528;19.760;2022-11-15T17:06:40;23.20;43.04
67502;SHT30;54349;52.528;19.760;2022-11-15T17:09:17;23.18;43.08
67502;SHT30;54349;52.528;19.760;2022-11-15T17:11:51;23.15;43.10
67502;SHT30;54349;52.528;19.760;2022-11-15T17:14:19;23.13;43.10
67502;SHT30;54349;52.528;19.760;2022-11-15T17:16:48;23.12;43.11
67502;SHT30;54349;52.528;19.760;2022-11-15T17:19:17;23.12;43.10
67502;SHT30;54349;52.528;19.760;2022-11-15T17:21:47;23.11;43.12
67502;SHT30;54349;52.528;19.760;2022-11-15T17:24:16;23.10;43.15
67502;SHT30;54349;52.528;19.760;2022-11-15T17:26:47;23.09;43.18
67502;SHT30;54349;52.528;19.760;2022-11-15T17:29:16;23.11;43.20
67502;SHT30;54349;52.528;19.760;2022-11-15T17:31:45;23.11;43.20
67502;SHT30;54349;52.528;19.760;2022-11-15T17:34:13;23.12;43.20
67502;SHT30;54349;52.528;19.760;2022-11-15T17:36:42;23.13;43.20
67502;SHT30;54349;52.528;19.760;2022-11-15T17:39:10;23.14;43.22
67502;SHT30;54349;52.528;19.760;2022-11-15T17:41:38;23.15;43.21
67502;SHT30;54349;52.528;19.760;2022-11-15T17:44:06;23.16;43.17
67502;SHT30;54349;52.528;19.760;2022-11-15T17:46:35;23.17;43.18
67502;SHT30;54349;52.528;19.760;2022-11-15T17:49:03;23.19;43.14
67502;SHT30;54349;52.528;19.760;2022-11-15T17:51:31;23.19;43.28
67502;SHT30;54349;52.528;19.760;2022-11-15T17:54:00;23.20;43.68
67502;SHT30;54349;52.528;19.760;2022-11-15T17:56:29;23.22;44.35
67502;SHT30;54349;52.528;19.760;2022-11-15T17:58:58;23.25;44.94
67502;SHT30;54349;52.528;19.760;2022-11-15T18:01:31;23.26;45.67
67502;SHT30;54349;52.528;19.760;2022-11-15T18:04:02;23.28;46.36
67502;SHT30;54349;52.528;19.760;2022-11-15T18:06:36;23.32;46.75
67502;SHT30;54349;52.528;19.760;2022-11-15T18:09:05;23.32;46.92
67502;SHT30;54349;52.528;19.760;2022-11-15T18:11:38;23.33;47.24
67502;SHT30;54349;52.528;19.760;2022-11-15T18:14:11;23.34;47.55
67502;SHT30;54349;52.528;19.760;2022-11-15T18:16:41;23.36;47.75
67502;SHT30;54349;52.528;19.760;2022-11-15T18:19:10;23.38;47.93
67502;SHT30;54349;52.528;19.760;2022-11-15T18:21:41;23.42;48.09
67502;SHT30;54349;52.528;19.760;2022-11-15T18:24:25;23.43;48.22
67502;SHT30;54349;52.528;19.760;2022-11-15T18:27:02;23.44;48.30
67502;SHT30;54349;52.528;19.760;2022-11-15T18:29:33;23.47;48.22
67502;SHT30;54349;52.528;19.760;2022-11-15T18:32:05;23.50;48.04
67502;SHT30;54349;52.528;19.760;2022-11-15T18:34:38;23.51;47.88
67502;SHT30;54349;52.528;19.760;2022-11-15T18:37:07;23.52;47.78
67502;SHT30;54349;52.528;19.760;2022-11-15T18:39:35;23.52;47.75
67502;SHT30;54349;52.528;19.760;2022-11-15T18:42:04;23.53;47.70
67502;SHT30;54349;52.528;19.760;2022-11-15T18:44:32;23.54;47.67
67502;SHT30;54349;52.528;19.760;2022-11-15T18:47:01;23.53;47.64
67502;SHT30;54349;52.528;19.760;2022-11-15T18:49:29;23.53;47.58
67502;SHT30;54349;52.528;19.760;2022-11-15T18:51:58;23.52;47.62
67502;SHT30;54349;52.528;19.760;2022-11-15T18:54:26;23.52;47.81
67502;SHT30;54349;52.528;19.760;2022-11-15T18:56:59;23.52;47.98
67502;SHT30;54349;52.528;19.760;2022-11-15T18:59:27;23.50;47.96
67502;SHT30;54349;52.528;19.760;2022-11-15T19:01:56;23.50;47.89
67502;SHT30;54349;52.528;19.760;2022-11-15T19:04:24;23.50;47.66
67502;SHT30;54349;52.528;19.760;2022-11-15T19:06:52;23.50;47.53
67502;SHT30;54349;52.528;19.760;2022-11-15T19:09:21;23.49;47.40
67502;SHT30;54349;52.528;19.760;2022-11-15T19:11:53;23.48;47.32